Time;durP1;ratioP1;P1;durP2;ratioP2;P2;SDS_P1;SDS_P2;PMS_P1;PMS_P2;Temp;Humidity;BMP_temperature;BMP_pressure;BME280_temperature;BME280_humidity;BME280_pressure;Samples;Min_cycle;Max_cycle;Signal;HPM_P1;HPM_P2
2021/12/04 00:02:05;;;;;;;4.33;2.03;;;;;;;2.87;52.33;96667.63;6778296;20;130712;-88
2021/12/04 00:04:40;;;;;;;27.87;11.97;;;;;;;2.97;52.33;96660.22;6812536;20;133981;-87
2021/12/04 00:07:12;;;;;;;5.13;2.70;;;;;;;3.00;51.85;96668.31;6778164;20;136165;-87
2021/12/04 00:09:45;;;;;;;4.37;2.30;;;;;;;2.88;52.45;96658.97;6804475;20;130721;-86
2021/12/04 00:12:16;;;;;;;4.53;1.90;;;;;;;2.88;52.26;96658.22;6777821;20;129804;-88
2021/12/04 00:14:48;;;;;;;2.93;1.70;;;;;;;2.85;52.19;96656.38;6805031;20;133138;-89
2021/12/04 00:17:19;;;;;;;4.20;1.90;;;;;;;2.87;51.94;96649.25;6767902;20;134099;-87
2021/12/04 00:19:52;;;;;;;5.40;2.00;;;;;;;3.00;51.80;96653.91;6801238;20;129152;-86
2021/12/04 00:22:22;;;;;;;6.33;1.80;;;;;;;2.94;51.75;96647.47;6774173;20;129713;-87
2021/12/04 00:24:53;;;;;;;2.70;1.30;;;;;;;2.95;51.37;96647.00;6808686;20;129384;-87
2021/12/04 00:27:23;;;;;;;3.67;1.73;;;;;;;2.89;51.95;96637.88;6773872;20;131688;-87
2021/12/04 00:29:53;;;;;;;3.90;1.67;;;;;;;2.91;51.51;96626.50;6814021;20;132054;-88
2021/12/04 00:32:28;;;;;;;3.72;1.63;;;;;;;2.96;51.73;96623.19;6777094;20;132389;-88
2021/12/04 00:35:09;;;;;;;5.93;2.20;;;;;;;2.98;51.65;96618.06;6815086;20;130332;-86
2021/12/04 00:49:04;;;;;;;4.53;1.90;;;;;;;3.06;51.54;96619.31;6807444;20;133003;-88
2021/12/04 00:49:10;;;;;;;4.13;2.07;;;;;;;3.07;51.51;96599.72;6810457;20;130021;-89
2021/12/04 00:51:50;;;;;;;4.93;1.83;;;;;;;3.10;51.81;96604.31;6780945;20;134796;-86
2021/12/04 00:54:21;;;;;;;9.80;2.17;;;;;;;3.04;52.10;96591.69;6820293;20;135208;-89
2021/12/04 00:56:51;;;;;;;3.92;1.70;;;;;;;3.05;51.90;96593.97;6786883;20;130544;-87
2021/12/04 00:59:22;;;;;;;6.47;2.50;;;;;;;3.22;51.96;96583.56;6816229;20;132499;-88
2021/12/04 01:01:52;;;;;;;6.85;2.15;;;;;;;3.27;51.84;96582.97;6784553;20;131748;-87
2021/12/04 01:04:24;;;;;;;5.03;2.38;;;;;;;3.34;51.60;96581.94;6817421;20;132477;-87
2021/12/04 01:06:57;;;;;;;4.20;1.80;;;;;;;3.47;51.42;96579.88;6782486;20;132483;-87
2021/12/04 01:09:29;;;;;;;4.37;1.77;;;;;;;3.42;51.33;96583.94;6814390;20;129681;-87
2021/12/04 01:12:00;;;;;;;3.97;1.90;;;;;;;3.48;51.54;96584.88;6784102;20;131020;-87
2021/12/04 01:14:31;;;;;;;4.70;2.13;;;;;;;3.54;51.47;96574.13;6817678;20;135096;-87
2021/12/04 01:17:02;;;;;;;3.93;1.60;;;;;;;3.51;51.14;96583.22;6780537;20;133299;-86
2021/12/04 01:19:36;;;;;;;2.90;1.50;;;;;;;3.59;51.09;96574.28;6821027;20;129875;-87
2021/12/04 01:22:09;;;;;;;4.30;2.07;;;;;;;3.64;51.30;96584.66;6785767;20;133504;-88
2021/12/04 01:24:39;;;;;;;9.30;2.43;;;;;;;3.58;51.35;96575.50;6812153;20;134977;-88
2021/12/04 01:27:10;;;;;;;7.80;1.90;;;;;;;3.64;51.38;96573.72;6784989;20;132234;-88
2021/12/04 01:29:41;;;;;;;4.10;1.85;;;;;;;3.71;51.48;96581.59;6816472;20;129711;-88
2021/12/04 01:32:12;;;;;;;5.67;1.93;;;;;;;3.69;51.36;96581.31;6780264;20;131518;-88
2021/12/04 01:34:42;;;;;;;3.35;1.52;;;;;;;3.77;51.30;96579.03;6814439;20;129084;-88
2021/12/04 01:37:15;;;;;;;5.13;1.83;;;;;;;3.82;51.22;96574.97;6781398;20;131980;-88
2021/12/04 01:39:45;;;;;;;3.57;2.00;;;;;;;3.91;51.12;96577.69;6816440;20;131218;-88
2021/12/04 01:42:20;;;;;;;4.83;2.00;;;;;;;3.80;51.23;96582.84;6787096;20;129377;-88
2021/12/04 01:44:50;;;;;;;7.87;2.47;;;;;;;3.69;51.71;96577.81;6816470;20;133034;-87
2021/12/04 01:47:23;;;;;;;3.93;2.00;;;;;;;3.89;51.41;96577.41;6783887;20;133196;-88
2021/12/04 01:49:55;;;;;;;4.17;1.93;;;;;;;3.95;51.39;96573.59;6813177;20;137698;-87
2021/12/04 01:52:28;;;;;;;4.17;2.23;;;;;;;3.88;51.58;96564.94;6778626;20;131790;-88
2021/12/04 01:54:59;;;;;;;4.40;2.00;;;;;;;3.86;51.82;96564.63;6811268;20;130839;-87
2021/12/04 01:57:29;;;;;;;;;;;;;;;3.90;51.83;96565.22;6780094;20;130471;-88
2021/12/04 01:59:59;;;;;;;3.30;1.90;;;;;;;3.88;52.00;96564.94;6811956;20;134886;-87
2021/12/04 02:02:30;;;;;;;5.37;2.70;;;;;;;3.76;52.83;96565.84;6772183;20;133743;-87
2021/12/04 02:05:00;;;;;;;5.43;2.40;;;;;;;3.72;53.13;96566.72;6815618;20;130161;-87
2021/12/04 02:07:33;;;;;;;7.80;3.03;;;;;;;3.83;52.97;96560.81;6776637;20;129762;-87
2021/12/04 02:10:05;;;;;;;5.70;2.27;;;;;;;3.87;52.92;96555.22;6812034;20;131818;-88
2021/12/04 02:12:36;;;;;;;5.03;2.40;;;;;;;3.93;53.02;96556.13;6776777;20;134063;-87
2021/12/04 02:15:09;;;;;;;5.13;2.17;;;;;;;3.94;53.12;96554.91;6816060;20;129479;-89
2021/12/04 02:17:39;;;;;;;5.47;2.83;;;;;;;3.91;53.60;96547.59;6769735;20;131477;-88
2021/12/04 02:20:19;;;;;;;4.80;2.43;;;;;;;3.70;54.45;96541.06;6812137;20;129626;-88
2021/12/04 02:22:51;;;;;;;5.20;2.40;;;;;;;3.66;55.05;96535.72;6779772;20;133722;-89
2021/12/04 02:25:21;;;;;;;4.67;2.57;;;;;;;3.53;55.53;96526.91;6814165;20;132539;-88
2021/12/04 02:27:52;;;;;;;5.50;2.30;;;;;;;3.57;55.88;96535.69;6784852;20;132286;-89
2021/12/04 02:30:28;;;;;;;5.15;2.58;;;;;;;3.69;55.84;96528.59;6811929;20;129579;-88
2021/12/04 02:32:59;;;;;;;4.73;2.80;;;;;;;3.65;56.12;96533.44;6793450;20;137148;-88
2021/12/04 02:35:34;;;;;;;5.73;2.67;;;;;;;3.61;56.49;96532.81;6811838;20;132575;-88
2021/12/04 02:38:05;;;;;;;6.03;2.90;;;;;;;3.58;56.75;96526.28;6788241;20;130589;-88
2021/12/04 02:40:42;;;;;;;12.90;3.47;;;;;;;3.54;57.04;96519.41;6797721;20;129859;-90
2021/12/04 02:43:14;;;;;;;5.80;3.07;;;;;;;3.54;57.44;96520.19;6814895;20;129421;-89
2021/12/04 02:45:45;;;;;;;5.88;3.65;;;;;;;3.55;57.36;96518.97;6776654;20;133225;-90
2021/12/04 02:48:16;;;;;;;;;;;;;;;3.65;57.40;96512.31;6812736;20;135028;-89
2021/12/04 02:50:49;;;;;;;7.63;3.50;;;;;;;3.64;57.75;96510.81;6781802;20;132622;-89
2021/12/04 02:53:19;;;;;;;6.73;3.57;;;;;;;3.57;58.35;96516.56;6810196;20;128419;-89
2021/12/04 02:55:50;;;;;;;6.15;3.35;;;;;;;3.54;59.25;96511.97;6776180;20;134884;-89
2021/12/04 02:58:20;;;;;;;7.13;3.47;;;;;;;3.53;60.08;96504.25;6811306;20;133616;-89
2021/12/04 03:00:52;;;;;;;5.95;3.45;;;;;;;3.46;61.64;96499.06;6771912;20;132823;-89
2021/12/04 03:03:23;;;;;;;5.93;3.45;;;;;;;3.37;63.19;96505.25;6813213;20;129244;-88
2021/12/04 03:05:56;;;;;;;7.05;4.00;;;;;;;3.24;64.98;96491.72;6778188;20;129559;-88
2021/12/04 03:08:27;;;;;;;12.10;4.57;;;;;;;3.21;66.10;96483.66;6810343;20;133905;-89
2021/12/04 03:10:59;;;;;;;7.90;4.70;;;;;;;3.14;67.61;96481.22;6783821;20;132089;-88
2021/12/04 03:13:29;;;;;;;8.13;4.40;;;;;;;3.04;68.94;96482.41;6805631;20;130671;-89
2021/12/04 03:16:00;;;;;;;11.38;5.00;;;;;;;3.02;69.86;96484.81;6772792;20;131293;-88
2021/12/04 03:18:33;;;;;;;8.33;4.87;;;;;;;2.91;70.97;96481.72;6804621;20;135282;-89
2021/12/04 03:21:06;;;;;;;7.45;4.70;;;;;;;2.91;71.35;96479.00;6777088;20;132789;-88
2021/12/04 03:23:41;;;;;;;9.80;5.27;;;;;;;2.93;71.76;96490.25;6812302;20;131513;-88
2021/12/04 03:26:12;;;;;;;10.47;5.03;;;;;;;2.97;71.85;96485.41;6778901;20;132191;-88
2021/12/04 03:28:44;;;;;;;10.10;4.80;;;;;;;2.93;72.11;96473.88;6812569;20;129324;-88
2021/12/04 03:31:19;;;;;;;9.60;5.68;;;;;;;2.94;72.18;96469.94;6778676;20;135202;-88
2021/12/04 03:42:03;;;;;;;8.27;5.27;;;;;;;2.67;73.95;96457.66;6776204;20;133172;-87
2021/12/04 03:44:33;;;;;;;9.20;5.85;;;;;;;2.73;73.95;96455.88;6810996;20;132418;-85
2021/12/04 03:47:07;;;;;;;9.65;5.43;;;;;;;2.81;73.92;96448.94;6773628;20;133260;-88
2021/12/04 03:49:37;;;;;;;9.07;5.43;;;;;;;2.89;73.72;96455.63;6808082;20;131823;-88
2021/12/04 03:52:12;;;;;;;10.00;5.40;;;;;;;3.00;73.57;96446.28;6776248;20;129682;-88
2021/12/04 03:54:43;;;;;;;13.80;5.87;;;;;;;3.15;73.18;96436.28;6806507;20;135441;-88
2021/12/04 03:57:13;;;;;;;8.38;5.00;;;;;;;3.20;73.00;96439.19;6774890;20;137374;-87
2021/12/04 03:59:50;;;;;;;9.13;4.90;;;;;;;3.17;73.06;96442.06;6803745;20;129249;-87
2021/12/04 04:02:21;;;;;;;10.83;5.70;;;;;;;3.26;72.99;96437.38;6772953;20;132057;-88
2021/12/04 04:04:51;;;;;;;12.93;5.60;;;;;;;3.38;72.71;96432.22;6807807;20;136252;-87
2021/12/04 04:07:24;;;;;;;11.17;5.10;;;;;;;3.35;72.60;96428.44;6771249;20;133670;-88
2021/12/04 04:09:54;;;;;;;9.90;5.30;;;;;;;3.40;72.68;96436.03;6807731;20;129307;-87
2021/12/04 04:12:24;;;;;;;53.57;32.10;;;;;;;3.33;72.94;96430.84;6773764;20;130117;-88
2021/12/04 04:14:54;;;;;;;38.33;22.70;;;;;;;3.24;72.88;96422.66;6807926;20;132214;-87
2021/12/04 04:17:26;;;;;;;11.50;5.10;;;;;;;3.10;73.08;96425.94;6770774;20;133693;-87
2021/12/04 04:19:56;;;;;;;10.53;4.00;;;;;;;3.17;73.37;96418.22;6813714;20;131689;-87
2021/12/04 04:22:29;;;;;;;6.23;3.67;;;;;;;3.12;73.14;96413.34;6772747;20;132653;-87
2021/12/04 04:24:59;;;;;;;8.17;4.30;;;;;;;3.17;73.28;96420.22;6809610;20;130292;-88
2021/12/04 04:27:29;;;;;;;5.70;3.63;;;;;;;3.18;73.24;96408.81;6775066;20;131788;-88
2021/12/04 04:30:00;;;;;;;7.13;3.60;;;;;;;3.16;73.28;96399.56;6814105;20;132980;-87
2021/12/04 04:32:30;;;;;;;7.27;3.63;;;;;;;3.17;73.54;96398.34;6781801;20;130532;-88
2021/12/04 04:35:08;;;;;;;6.47;3.80;;;;;;;3.19;73.44;96391.19;6814453;20;130964;-88
2021/12/04 04:37:48;;;;;;;7.07;3.97;;;;;;;3.29;73.02;96395.47;6780803;20;131446;-88
2021/12/04 04:59:37;;;;;;;9.17;4.37;;;;;;;3.17;73.10;96377.25;6814513;20;129172;-87
2021/12/04 05:10:34;;;;;;;7.80;4.70;;;;;;;3.09;73.44;96380.72;6813187;20;129357;-87
2021/12/04 05:13:06;;;;;;;9.50;5.07;;;;;;;2.92;73.75;96380.22;6779100;20;129593;-87
2021/12/04 05:15:42;;;;;;;9.47;5.37;;;;;;;2.91;74.28;96372.47;6809945;20;135844;-87
2021/12/04 05:18:23;;;;;;;10.07;5.50;;;;;;;2.87;74.48;96370.66;6791915;20;135213;-87
2021/12/04 05:21:04;;;;;;;11.80;5.50;;;;;;;2.80;74.86;96362.00;6780069;20;129506;-87
2021/12/04 05:23:36;;;;;;;12.00;5.90;;;;;;;2.76;75.28;96362.16;6807700;20;130655;-87
2021/12/04 05:26:13;;;;;;;9.37;5.67;;;;;;;2.73;75.27;96354.84;6779929;20;131455;-87
2021/12/04 05:28:44;;;;;;;9.07;5.53;;;;;;;2.68;75.26;96355.44;6822551;20;133673;-88
2021/12/04 05:31:14;;;;;;;11.25;5.95;;;;;;;2.65;75.44;96356.31;6783320;20;130971;-88
2021/12/04 05:33:46;;;;;;;10.48;5.05;;;;;;;2.72;75.44;96355.28;6811638;20;134631;-87
2021/12/04 05:36:16;;;;;;;30.00;16.27;;;;;;;2.69;75.33;96348.78;6782878;20;132129;-88
2021/12/04 05:38:47;;;;;;;29.35;14.73;;;;;;;2.62;75.41;96356.47;6811242;20;133480;-86
2021/12/04 05:41:19;;;;;;;9.93;5.97;;;;;;;2.56;75.50;96347.34;6783919;20;132748;-87
2021/12/04 05:43:49;;;;;;;11.67;6.27;;;;;;;2.63;75.39;96350.56;6813108;20;130800;-87
2021/12/04 05:46:24;;;;;;;10.80;5.73;;;;;;;2.70;75.18;96355.75;6782385;20;131453;-88
2021/12/04 05:48:57;;;;;;;11.07;6.20;;;;;;;2.64;75.15;96354.81;6816162;20;129213;-87
2021/12/04 05:51:34;;;;;;;9.47;5.87;;;;;;;2.62;75.01;96359.97;6791515;20;133778;-87
2021/12/04 05:54:18;;;;;;;11.40;6.63;;;;;;;2.65;75.14;96355.59;6822889;20;129192;-87
2021/12/04 05:56:51;;;;;;;10.93;6.07;;;;;;;2.67;75.10;96353.91;6774883;20;130719;-87
2021/12/04 05:59:21;;;;;;;13.80;5.93;;;;;;;2.69;75.11;96350.75;6815525;20;128965;-87
2021/12/04 06:01:51;;;;;;;10.13;5.73;;;;;;;2.64;74.98;96351.34;6780291;20;133817;-87
2021/12/04 06:04:21;;;;;;;9.37;5.23;;;;;;;2.68;75.13;96351.94;6813486;20;135630;-87
2021/12/04 06:06:51;;;;;;;15.20;5.73;;;;;;;2.65;74.88;96345.41;6782752;20;132624;-88
2021/12/04 06:09:21;;;;;;;10.40;6.30;;;;;;;2.60;75.29;96342.50;6817512;20;130291;-88
2021/12/04 06:11:54;;;;;;;8.70;5.33;;;;;;;2.78;75.09;96351.50;6798027;20;130587;-87
2021/12/04 06:14:24;;;;;;;11.90;6.13;;;;;;;2.70;74.84;96346.81;6836999;20;134400;-87
2021/12/04 06:16:54;;;;;;;12.20;5.85;;;;;;;2.59;75.14;96346.47;6797268;20;130614;-87
2021/12/04 06:22:37;;;;;;;13.27;5.90;;;;;;;2.61;75.24;96344.03;6829125;20;129253;-88
2021/12/04 06:25:00;;;;;;;10.70;6.00;;;;;;;2.62;74.92;96346.31;6827524;20;132267;-88
2021/12/04 06:27:32;;;;;;;11.93;6.33;;;;;;;2.61;75.11;96344.03;6796226;20;131837;-90
2021/12/04 06:30:02;;;;;;;11.47;5.97;;;;;;;2.68;74.83;96344.50;6832829;20;129285;-89
2021/12/04 06:32:35;;;;;;;12.67;6.53;;;;;;;2.69;74.86;96335.13;6798677;20;129676;-89
2021/12/04 06:35:05;;;;;;;8.93;5.53;;;;;;;2.76;74.68;96334.06;6831832;20;129405;-89
2021/12/04 06:37:36;;;;;;;10.50;5.85;;;;;;;2.73;74.35;96329.50;6808241;20;131698;-89
2021/12/04 06:40:11;;;;;;;9.73;5.85;;;;;;;2.71;74.37;96321.75;6827633;20;130643;-91
2021/12/04 06:42:45;;;;;;;9.17;5.63;;;;;;;2.73;74.55;96330.25;6764588;20;134296;-90
2021/12/04 06:45:15;;;;;;;8.70;5.53;;;;;;;2.72;74.24;96323.28;6815579;20;128870;-90
2021/12/04 06:47:51;;;;;;;10.02;5.57;;;;;;;2.74;74.31;96342.72;6780321;20;132934;-90
2021/12/04 06:50:29;;;;;;;41.37;20.23;;;;;;;2.80;73.95;96334.69;6810311;20;134646;-89
2021/12/04 06:53:03;;;;;;;15.27;8.73;;;;;;;2.91;73.72;96332.28;6782037;20;130492;-89
2021/12/04 06:55:38;;;;;;;10.03;5.53;;;;;;;2.97;73.36;96335.91;6814170;20;132239;-90
2021/12/04 06:58:11;;;;;;;10.10;5.50;;;;;;;2.87;73.59;96335.16;6779284;20;131706;-89
2021/12/04 07:00:41;;;;;;;8.03;5.10;;;;;;;2.87;73.29;96335.16;6816609;20;134872;-89
2021/12/04 07:03:17;;;;;;;8.60;4.90;;;;;;;3.02;72.87;96329.84;6777808;20;134446;-89
2021/12/04 07:05:47;;;;;;;8.40;5.00;;;;;;;3.09;72.77;96324.09;6807136;20;131463;-89
2021/12/04 07:08:18;;;;;;;9.80;5.37;;;;;;;3.10;72.48;96327.59;6779882;20;130682;-89
2021/12/04 07:10:49;;;;;;;12.10;4.93;;;;;;;3.09;72.37;96320.59;6811420;20;135638;-89
2021/12/04 07:13:21;;;;;;;10.02;4.93;;;;;;;3.00;72.49;96315.16;6775415;20;131288;-89
2021/12/04 07:16:00;;;;;;;8.30;4.73;;;;;;;3.04;72.52;96302.84;6806741;20;129931;-89
2021/12/04 07:18:32;;;;;;;9.87;4.97;;;;;;;3.00;72.18;96306.94;6809044;20;130520;-90
2021/12/04 07:21:03;;;;;;;8.50;4.30;;;;;;;3.02;72.31;96294.34;6798026;20;128831;-90
2021/12/04 07:23:33;;;;;;;9.93;5.40;;;;;;;3.07;72.42;96295.69;6810140;20;133455;-90
2021/12/04 07:26:07;;;;;;;9.30;5.30;;;;;;;3.11;72.57;96296.34;6776745;20;129769;-89
2021/12/04 07:28:40;;;;;;;7.80;4.40;;;;;;;3.10;72.28;96294.81;6810925;20;133008;-89
2021/12/04 07:31:11;;;;;;;9.57;5.40;;;;;;;3.12;73.12;96295.13;6780485;20;131750;-90
2021/12/04 07:33:41;;;;;;;10.57;5.10;;;;;;;3.13;73.07;96296.63;6811668;20;135536;-89
2021/12/04 07:36:11;;;;;;;9.00;4.90;;;;;;;3.07;72.47;96291.00;6774256;20;133474;-89
2021/12/04 07:38:41;;;;;;;9.47;5.13;;;;;;;3.16;72.24;96282.06;6810905;20;128927;-89
2021/12/04 07:41:11;;;;;;;8.63;5.43;;;;;;;3.27;72.28;96285.84;6775815;20;132222;-90
2021/12/04 07:43:45;;;;;;;10.77;5.73;;;;;;;3.30;71.80;96289.63;6811699;20;129237;-90
2021/12/04 07:46:14;;;;;;;11.13;5.47;;;;;;;3.24;71.70;96296.94;6771959;20;131994;-90
2021/12/04 07:48:45;;;;;;;10.07;5.63;;;;;;;3.22;71.70;96299.38;6804719;20;132750;-89
2021/12/04 07:51:17;;;;;;;11.70;5.80;;;;;;;3.19;72.41;96295.56;6774433;20;130188;-88
2021/12/04 07:53:49;;;;;;;9.57;5.80;;;;;;;3.36;72.10;96293.28;6808855;20;128848;-90
2021/12/04 07:56:19;;;;;;;9.63;6.00;;;;;;;3.39;71.69;96295.09;6774525;20;134701;-90
2021/12/04 07:58:52;;;;;;;8.77;5.35;;;;;;;3.39;71.26;96292.38;6808896;20;133376;-90
2021/12/04 08:01:23;;;;;;;9.33;5.53;;;;;;;3.41;71.28;96294.66;6773947;20;130366;-90
2021/12/04 08:03:53;;;;;;;9.80;5.93;;;;;;;3.41;70.52;96289.94;6803620;20;130823;-90
2021/12/04 08:06:23;;;;;;;11.67;6.33;;;;;;;3.34;70.72;96290.25;6775679;20;130517;-89
2021/12/04 08:08:58;;;;;;;9.80;5.73;;;;;;;3.14;70.46;96296.16;6808484;20;131439;-87
2021/12/04 08:11:33;;;;;;;9.33;5.70;;;;;;;3.21;71.06;96295.88;6773091;20;129557;-89
2021/12/04 08:14:06;;;;;;;28.05;14.75;;;;;;;3.18;70.77;96293.31;6807265;20;131747;-88
2021/12/04 08:16:38;;;;;;;26.60;13.87;;;;;;;3.24;71.07;96291.47;6772837;20;131390;-89
2021/12/04 08:19:08;;;;;;;11.53;7.07;;;;;;;3.29;70.62;96285.41;6807644;20;131865;-90
2021/12/04 08:21:38;;;;;;;9.30;5.30;;;;;;;3.42;70.67;96280.50;6771135;20;134573;-90
2021/12/04 08:24:09;;;;;;;11.97;5.70;;;;;;;3.62;69.79;96283.53;6802500;20;130293;-89
2021/12/04 08:26:44;;;;;;;9.15;5.60;;;;;;;3.80;69.14;96288.19;6773772;20;134052;-93
2021/12/04 08:29:17;;;;;;;9.33;5.40;;;;;;;4.02;68.60;96282.50;6816184;20;129309;-93
2021/12/04 08:31:47;;;;;;;14.27;6.07;;;;;;;4.20;68.42;96279.69;6773410;20;137209;-90
2021/12/04 08:34:18;;;;;;;10.13;6.03;;;;;;;4.39;68.04;96278.41;6807267;20;131389;-89
2021/12/04 08:36:51;;;;;;;10.10;6.07;;;;;;;4.44;67.58;96275.00;6767059;20;129858;-91
2021/12/04 08:39:23;;;;;;;9.10;6.05;;;;;;;4.32;67.43;96281.47;6804485;20;131128;-91
2021/12/04 08:41:53;;;;;;;8.32;5.57;;;;;;;4.16;67.27;96272.88;6771767;20;136350;-90
2021/12/04 08:44:37;;;;;;;9.03;5.67;;;;;;;4.10;66.84;96275.47;6805853;20;135288;-89
2021/12/04 08:47:07;;;;;;;6.87;4.80;;;;;;;4.06;66.81;96267.41;6769250;20;131197;-93
2021/12/04 08:49:37;;;;;;;8.03;5.17;;;;;;;3.99;66.59;96254.09;6802585;20;129385;-92
2021/12/04 08:52:09;;;;;;;8.70;5.40;;;;;;;4.16;66.91;96262.69;6778878;20;130073;-91
2021/12/04 08:54:41;;;;;;;8.75;4.90;;;;;;;4.12;65.94;96260.09;6808605;20;133507;-90
2021/12/04 08:57:12;;;;;;;9.30;6.07;;;;;;;4.08;65.87;96254.03;6777341;20;131540;-90
2021/12/04 08:59:47;;;;;;;10.80;7.00;;;;;;;4.10;66.07;96253.59;6805567;20;129372;-88
2021/12/04 09:02:18;;;;;;;12.38;6.63;;;;;;;4.32;66.12;96256.06;6767580;20;129098;-90
2021/12/04 09:04:48;;;;;;;11.48;6.53;;;;;;;4.39;65.75;96256.50;6804306;20;133677;-90
2021/12/04 09:07:21;;;;;;;11.75;6.20;;;;;;;4.58;65.24;96267.34;6770315;20;133303;-88
2021/12/04 09:09:54;;;;;;;11.18;6.55;;;;;;;4.68;64.95;96264.06;6803700;20;130418;-89
2021/12/04 09:12:26;;;;;;;15.73;8.73;;;;;;;4.76;63.99;96261.75;6762220;20;130730;-89
2021/12/04 09:15:00;;;;;;;9.93;5.88;;;;;;;4.94;63.33;96265.13;6815923;20;131120;-89
2021/12/04 09:17:37;;;;;;;8.55;5.38;;;;;;;5.27;62.48;96262.28;6770477;20;133891;-88
2021/12/04 09:20:12;;;;;;;10.50;6.22;;;;;;;5.63;62.15;96257.66;6813081;20;130471;-89
2021/12/04 09:22:59;;;;;;;8.98;5.63;;;;;;;5.66;60.92;96259.44;6783525;20;129448;-85
2021/12/04 09:25:55;;;;;;;12.05;6.28;;;;;;;6.01;60.62;96249.34;6802872;20;129648;-86
2021/12/04 09:28:47;;;;;;;9.73;6.05;;;;;;;6.26;58.93;96249.97;6785653;20;135847;-86
2021/12/04 09:32:04;;;;;;;10.50;6.18;;;;;;;6.68;57.66;96246.81;6778072;20;131687;-89
2021/12/04 10:02:42;;;;;;;6.13;4.30;;;;;;;7.87;52.24;96218.81;6775518;20;129575;-72
2021/12/04 10:19:31;;;;;;;6.38;4.10;;;;;;;8.52;51.71;96181.22;6799615;20;133987;-67
2021/12/04 10:22:23;;;;;;;8.02;5.10;;;;;;;8.45;51.74;96178.16;6777972;20;133617;-68
2021/12/04 10:32:01;;;;;;;5.97;4.13;;;;;;;8.41;51.27;96174.91;6800894;20;130470;-68
2021/12/04 10:33:47;;;;;;;9.45;5.78;;;;;;;8.92;49.58;96171.09;6780224;20;133467;-69
2021/12/04 10:36:29;;;;;;;6.78;4.60;;;;;;;8.84;50.00;96161.78;6801006;20;129697;-72
2021/12/04 10:39:03;;;;;;;7.10;4.68;;;;;;;8.82;49.40;96153.28;6800994;20;130179;-70
2021/12/04 10:41:36;;;;;;;6.28;4.70;;;;;;;8.79;49.60;96155.00;6775198;20;129564;-70
2021/12/04 10:44:18;;;;;;;6.55;4.68;;;;;;;8.74;49.18;96158.50;6799729;20;135472;-70
2021/12/04 10:47:01;;;;;;;7.25;4.72;;;;;;;8.39;49.63;96149.81;6780673;20;132293;-71
2021/12/04 10:49:46;;;;;;;6.18;3.92;;;;;;;8.26;50.09;96152.97;6803787;20;131948;-71
2021/12/04 10:52:30;;;;;;;6.32;4.47;;;;;;;8.06;50.26;96150.38;6781850;20;131083;-72
2021/12/04 10:55:20;;;;;;;6.82;4.88;;;;;;;8.35;50.23;96149.31;6804429;20;134558;-72
2021/12/04 11:01:11;;;;;;;6.38;4.00;;;;;;;8.56;49.98;96140.38;6777438;20;130645;-71
2021/12/04 11:03:46;;;;;;;9.48;4.43;;;;;;;9.01;48.96;96132.28;6759164;20;130162;-68
2021/12/04 11:23:42;;;;;;;34.53;21.52;;;;;;;9.89;45.50;96103.19;6773330;20;132446;-69
2021/12/04 11:35:16;;;;;;;5.45;3.95;;;;;;;14.65;35.91;96094.38;6779053;20;131516;-68
2021/12/04 11:38:07;;;;;;;4.95;3.67;;;;;;;15.20;34.69;96102.81;6772233;20;132948;-71
2021/12/04 11:43:29;;;;;;;5.85;4.05;;;;;;;15.49;33.95;96090.47;6777044;20;129727;-71
2021/12/04 11:46:16;;;;;;;4.68;3.42;;;;;;;14.99;34.60;96083.28;6796673;20;134254;-70
2021/12/04 11:48:47;;;;;;;4.88;3.47;;;;;;;15.14;34.99;96066.72;6770720;20;135110;-70
2021/12/04 11:51:21;;;;;;;5.72;3.38;;;;;;;14.89;35.04;96073.13;6798393;20;129731;-71
2021/12/04 11:53:55;;;;;;;4.75;3.53;;;;;;;14.65;35.84;96057.44;6778784;20;136700;-72
2021/12/04 11:56:31;;;;;;;5.30;3.58;;;;;;;14.21;36.17;96061.81;6790540;20;129460;-71
2021/12/04 11:59:01;;;;;;;4.95;3.38;;;;;;;13.77;37.70;96061.34;6799562;20;135008;-70
2021/12/04 12:01:38;;;;;;;4.70;3.72;;;;;;;13.49;37.88;96061.78;6772939;20;133329;-69
2021/12/04 12:04:11;;;;;;;5.13;3.40;;;;;;;13.39;38.80;96059.94;6801447;20;129394;-69
2021/12/04 12:06:43;;;;;;;5.63;3.88;;;;;;;13.05;38.43;96054.13;6769073;20;129528;-69
2021/12/04 12:09:17;;;;;;;21.80;12.50;;;;;;;12.52;39.48;96059.38;6798826;20;132631;-69
2021/12/04 12:11:54;;;;;;;10.55;6.53;;;;;;;11.88;41.44;96061.13;6772946;20;132460;-62
2021/12/04 12:14:36;;;;;;;6.03;4.32;;;;;;;11.85;42.16;96062.88;6795639;20;129478;-62
2021/12/04 12:17:11;;;;;;;8.27;4.65;;;;;;;12.24;40.68;96045.09;6767916;20;131430;-62
2021/12/04 12:19:53;;;;;;;7.65;4.70;;;;;;;12.83;39.05;96043.34;6796756;20;129854;-62
2021/12/04 12:22:34;;;;;;;6.47;3.95;;;;;;;12.89;38.60;96036.44;6771546;20;135177;-62
2021/12/04 12:25:24;;;;;;;5.70;4.20;;;;;;;13.33;38.81;96028.72;6797510;20;133865;-63
2021/12/04 12:33:38;;;;;;;4.88;4.03;;;;;;;15.07;34.96;96022.09;6769763;20;134239;-62
2021/12/04 12:36:09;;;;;;;6.00;3.58;;;;;;;14.88;34.99;96013.91;6796258;20;132771;-63
2021/12/04 12:38:49;;;;;;;4.85;3.70;;;;;;;14.64;35.51;96005.81;6771060;20;129514;-64
2021/12/04 12:41:27;;;;;;;4.97;3.75;;;;;;;14.57;35.70;96003.69;6795080;20;130040;-70
2021/12/04 12:44:12;;;;;;;5.60;3.80;;;;;;;14.12;35.87;96014.97;6784367;20;130390;-65
2021/12/04 12:46:47;;;;;;;4.60;3.50;;;;;;;13.72;36.35;96022.53;6766076;20;134170;-64
2021/12/04 12:49:28;;;;;;;5.32;3.70;;;;;;;13.33;37.04;96015.59;6799114;20;133061;-60
2021/12/04 12:52:02;;;;;;;5.50;3.90;;;;;;;13.25;38.32;96011.97;6783251;20;129337;-72
2021/12/04 12:54:37;;;;;;;5.55;4.05;;;;;;;13.82;37.75;96009.72;6801532;20;130225;-70
2021/12/04 12:57:12;;;;;;;5.53;3.38;;;;;;;13.97;37.31;96018.25;6776107;20;133388;-70
2021/12/04 13:00:00;;;;;;;5.60;3.65;;;;;;;13.75;37.24;96021.47;6805108;20;134622;-70
2021/12/04 13:13:53;;;;;;;5.47;3.90;;;;;;;11.57;41.32;95998.66;6779006;20;133531;-69
2021/12/04 13:16:30;;;;;;;5.35;3.63;;;;;;;10.89;42.36;95999.75;6807486;20;129617;-70
2021/12/04 13:19:10;;;;;;;5.80;3.92;;;;;;;10.32;44.03;96006.13;6797133;20;129982;-70
2021/12/04 13:21:45;;;;;;;5.63;3.92;;;;;;;9.72;45.21;96003.06;6784064;20;132734;-70
2021/12/04 13:24:16;;;;;;;6.20;4.45;;;;;;;9.20;46.77;95998.09;6803496;20;131205;-71
2021/12/04 13:26:51;;;;;;;7.07;4.25;;;;;;;8.94;47.75;95994.84;6775037;20;134312;-70
2021/12/04 13:29:26;;;;;;;6.25;4.40;;;;;;;8.56;48.98;95985.28;6802070;20;129932;-70
2021/12/04 13:31:58;;;;;;;8.40;5.40;;;;;;;8.32;49.50;95976.72;6775633;20;129818;-69
2021/12/04 13:34:33;;;;;;;7.82;5.22;;;;;;;8.06;50.26;95985.13;6801549;20;134086;-71
2021/12/04 13:37:07;;;;;;;7.00;4.80;;;;;;;7.69;51.15;95969.47;6781710;20;133065;-73
2021/12/04 13:39:38;;;;;;;6.05;4.70;;;;;;;7.68;51.84;95973.44;6803533;20;130135;-70
2021/12/04 13:42:08;;;;;;;7.20;4.72;;;;;;;7.58;52.07;95974.91;6780160;20;132798;-69
2021/12/04 13:44:39;;;;;;;6.82;4.72;;;;;;;7.34;52.58;95974.53;6799516;20;133281;-70
2021/12/04 13:47:11;;;;;;;12.27;8.05;;;;;;;7.29;53.01;95978.00;6770701;20;136326;-69
2021/12/04 13:49:57;;;;;;;7.03;4.90;;;;;;;7.13;54.42;95973.88;6796471;20;130458;-70
2021/12/04 13:52:32;;;;;;;8.93;6.18;;;;;;;7.18;56.00;95972.41;6774541;20;129803;-70
2021/12/04 13:55:12;;;;;;;7.35;5.22;;;;;;;6.99;54.66;95969.28;6802262;20;131735;-68
2021/12/04 13:57:43;;;;;;;8.35;5.18;;;;;;;6.76;54.77;95973.84;6775433;20;134285;-70
2021/12/04 14:00:17;;;;;;;7.43;5.22;;;;;;;6.70;54.99;95973.06;6799965;20;132200;-72
2021/12/04 14:02:47;;;;;;;7.57;5.40;;;;;;;6.65;55.15;95967.50;6774665;20;130787;-71
2021/12/04 14:05:21;;;;;;;10.00;6.18;;;;;;;6.49;55.38;95972.34;6801062;20;129243;-70
2021/12/04 14:07:56;;;;;;;10.52;6.00;;;;;;;6.38;55.82;95966.75;6776302;20;134486;-71
2021/12/04 14:10:30;;;;;;;9.10;5.30;;;;;;;6.22;56.08;95963.84;6802504;20;134376;-70
2021/12/04 14:13:01;;;;;;;8.38;5.72;;;;;;;6.16;56.41;95969.28;6770743;20;129701;-71
2021/12/04 14:15:32;;;;;;;7.80;5.32;;;;;;;5.99;56.75;95965.59;6795329;20;130321;-71
2021/12/04 14:18:06;;;;;;;7.68;5.22;;;;;;;5.75;57.16;95965.78;6779416;20;133845;-70
2021/12/04 14:20:44;;;;;;;7.38;5.35;;;;;;;5.52;57.82;95964.75;6796202;20;133147;-70
2021/12/04 14:23:16;;;;;;;8.02;5.35;;;;;;;5.30;58.33;95962.47;6776791;20;132288;-71
2021/12/04 14:25:53;;;;;;;11.07;5.93;;;;;;;5.24;58.80;95964.38;6796519;20;130848;-70
2021/12/04 14:28:26;;;;;;;8.35;5.70;;;;;;;5.18;59.09;95974.53;6782943;20;133276;-70